Time;durP1;ratioP1;P1;durP2;ratioP2;P2;SDS_P1;SDS_P2;PMS_P1;PMS_P2;Temp;Humidity;BMP_temperature;BMP_pressure;BME280_temperature;BME280_humidity;BME280_pressure;Samples;Min_cycle;Max_cycle;Signal;HPM_P1;HPM_P2
2022/03/26 00:03:52;;;;;;;37.75;22.27;;;;;;;4.83;100.00;103222.56;2599626;54;21744;31
2022/03/26 00:17:16;;;;;;;50.67;23.93;;;;;;;4.78;100.00;103236.94;2601045;54;21213;31
2022/03/26 00:19:55;;;;;;;45.25;22.70;;;;;;;4.77;100.00;103235.19;2602470;47;20046;31
2022/03/26 00:27:58;;;;;;;41.50;22.65;;;;;;;4.40;100.00;103231.66;2601546;54;20302;31
2022/03/26 00:33:08;;;;;;;48.30;23.70;;;;;;;4.33;100.00;103240.75;2602036;54;21109;31
2022/03/26 00:38:18;;;;;;;40.47;23.25;;;;;;;4.46;100.00;103244.84;2603573;39;21164;31
2022/03/26 00:43:28;;;;;;;42.42;23.58;;;;;;;4.42;100.00;103243.16;2601750;54;20042;31
2022/03/26 00:51:15;;;;;;;40.53;22.63;;;;;;;4.18;100.00;103245.50;2601855;54;20199;31
2022/03/26 00:56:26;;;;;;;44.35;22.77;;;;;;;4.13;100.00;103242.06;2601687;54;21327;31
2022/03/26 00:59:13;;;;;;;44.65;23.55;;;;;;;4.01;100.00;103243.22;2607550;39;20755;31
2022/03/26 01:01:50;;;;;;;41.55;23.65;;;;;;;4.04;100.00;103252.94;2601110;46;21752;31
2022/03/26 01:07:08;;;;;;;43.13;24.02;;;;;;;4.05;100.00;103244.03;2605378;39;20300;31
2022/03/26 01:09:45;;;;;;;49.20;22.90;;;;;;;3.97;100.00;103235.34;2602654;46;20038;31
2022/03/26 01:17:36;;;;;;;42.20;23.13;;;;;;;3.81;100.00;103233.03;2601028;54;20443;31
2022/03/26 01:22:46;;;;;;;44.53;22.80;;;;;;;3.81;100.00;103233.03;2609420;39;20286;31
2022/03/26 01:27:56;;;;;;;38.70;22.15;;;;;;;3.83;100.00;103225.88;2600904;54;20101;31
2022/03/26 01:33:23;;;;;;;41.88;22.92;;;;;;;3.78;100.00;103225.06;2600982;54;20108;31
2022/03/26 01:36:22;;;;;;;40.72;22.35;;;;;;;3.71;100.00;103234.13;2601044;46;20414;31
2022/03/26 01:44:13;;;;;;;38.33;21.70;;;;;;;3.79;100.00;103237.50;2599503;54;20056;31
2022/03/26 01:49:23;;;;;;;41.58;22.70;;;;;;;3.81;100.00;103238.34;2603826;39;20267;31
2022/03/26 01:52:10;;;;;;;40.13;22.33;;;;;;;3.83;100.00;103233.00;2600635;54;20039;31
2022/03/26 01:54:47;;;;;;;37.67;21.35;;;;;;;3.77;100.00;103230.44;2621045;36;20689;31
2022/03/26 01:57:24;;;;;;;42.90;22.30;;;;;;;3.63;100.00;103220.09;2600278;46;20050;31
2022/03/26 02:00:01;;;;;;;37.60;21.90;;;;;;;3.57;100.00;103226.41;2600936;47;20045;31
2022/03/26 02:07:53;;;;;;;46.42;22.48;;;;;;;3.46;100.00;103220.44;2599718;54;20640;31
2022/03/26 02:13:05;;;;;;;38.75;21.98;;;;;;;3.32;100.00;103228.72;2600556;54;21166;31
2022/03/26 02:15:50;;;;;;;42.25;21.90;;;;;;;3.19;100.00;103227.19;2597614;39;22181;31
2022/03/26 02:18:28;;;;;;;41.80;21.70;;;;;;;3.26;100.00;103234.16;2601175;54;20965;31
2022/03/26 02:26:20;;;;;;;38.35;21.35;;;;;;;3.17;100.00;103226.38;2603740;39;20303;31
2022/03/26 02:31:30;;;;;;;39.75;23.95;;;;;;;3.14;100.00;103220.19;2600169;54;20001;31
2022/03/26 02:44:26;;;;;;;38.73;20.13;;;;;;;2.89;100.00;103222.44;2599817;54;20375;31
2022/03/26 02:49:44;;;;;;;38.35;20.15;;;;;;;2.77;100.00;103215.56;2600030;54;20403;31
2022/03/26 02:52:22;;;;;;;36.80;19.45;;;;;;;2.74;100.00;103222.69;2600931;54;20039;31
2022/03/26 03:00:09;;;;;;;;;;;;;;;2.86;100.00;103218.97;2599831;54;21257;31
2022/03/26 03:02:48;;;;;;;36.07;20.23;;;;;;;2.83;100.00;103211.00;2606615;31;20222;31
2022/03/26 03:10:38;;;;;;;35.83;19.17;;;;;;;2.49;100.00;103208.94;2626096;31;20383;31
2022/03/26 03:15:47;;;;;;;35.40;20.25;;;;;;;2.51;100.00;103209.81;2599977;54;21410;31
2022/03/26 03:21:00;;;;;;;40.60;20.05;;;;;;;2.61;100.00;103211.41;2599726;54;20034;31
2022/03/26 03:26:10;;;;;;;36.90;19.80;;;;;;;2.57;100.00;103212.34;2600473;54;20034;31
2022/03/26 03:31:21;;;;;;;37.90;20.60;;;;;;;2.54;100.00;103201.78;2604114;39;21139;31
2022/03/26 03:36:35;;;;;;;37.55;19.52;;;;;;;2.54;100.00;103209.75;2599609;54;20053;31
2022/03/26 03:49:51;;;;;;;36.92;19.02;;;;;;;2.28;100.00;103216.34;2597807;54;20030;31
2022/03/26 03:55:03;;;;;;;36.15;19.05;;;;;;;2.19;100.00;103209.41;2599804;54;20046;31
2022/03/26 03:57:44;;;;;;;36.47;19.60;;;;;;;2.18;100.00;103212.09;2600560;47;20038;31
2022/03/26 04:00:21;;;;;;;33.15;19.00;;;;;;;2.15;100.00;103213.03;2600176;54;20380;31
2022/03/26 04:10:48;;;;;;;37.05;19.70;;;;;;;2.12;100.00;103201.56;2599192;54;20426;31
2022/03/26 04:15:57;;;;;;;43.60;20.20;;;;;;;2.02;100.00;103200.84;2599376;54;20399;31
2022/03/26 04:18:34;;;;;;;42.63;20.85;;;;;;;1.95;100.00;103200.03;2600188;47;20064;31
2022/03/26 04:34:12;;;;;;;46.78;24.55;;;;;;;1.98;100.00;103200.00;2599695;54;20796;31
2022/03/26 04:39:22;;;;;;;40.55;21.65;;;;;;;1.88;100.00;103206.34;2599588;54;20054;31
2022/03/26 04:42:00;;;;;;;45.40;22.50;;;;;;;1.97;100.00;103206.19;2600552;47;20392;31
2022/03/26 04:49:52;;;;;;;49.40;22.92;;;;;;;1.74;100.00;103191.47;2599471;54;20042;31
2022/03/26 04:55:08;;;;;;;51.10;24.02;;;;;;;1.56;100.00;103197.94;2599637;54;20827;31
2022/03/26 04:57:48;;;;;;;51.72;24.40;;;;;;;1.53;100.00;103199.72;2600355;47;20729;31
2022/03/26 05:00:23;;;;;;;49.40;24.52;;;;;;;1.67;100.00;103200.44;2601440;54;20946;31
2022/03/26 05:08:06;;;;;;;48.97;24.25;;;;;;;1.80;100.00;103194.97;2599828;54;21541;31
2022/03/26 05:13:15;;;;;;;51.72;24.58;;;;;;;1.81;100.00;103194.06;2599521;54;20412;31
2022/03/26 05:21:00;;;;;;;52.28;25.48;;;;;;;1.81;100.00;103209.97;2607633;31;21137;31
2022/03/26 05:23:40;;;;;;;55.75;25.63;;;;;;;1.79;100.00;103209.13;2604319;39;20272;31
2022/03/26 05:31:31;;;;;;;60.47;25.92;;;;;;;1.88;100.00;103209.88;2599667;54;20034;31
2022/03/26 05:41:55;;;;;;;55.00;25.70;;;;;;;1.97;100.00;103211.50;2599827;54;20097;31
2022/03/26 05:47:10;;;;;;;55.72;26.45;;;;;;;1.76;100.00;103207.41;2599787;54;20046;31
2022/03/26 05:49:52;;;;;;;54.53;26.73;;;;;;;1.78;100.00;103218.84;2604201;39;21255;31
2022/03/26 05:52:28;;;;;;;60.90;28.15;;;;;;;1.88;100.00;103211.66;2603947;39;21083;31
2022/03/26 06:00:16;;;;;;;60.80;28.25;;;;;;;1.98;100.00;103223.91;2603579;39;20334;31
2022/03/26 06:02:53;;;;;;;54.83;26.42;;;;;;;2.07;100.00;103231.72;2599887;47;20034;31
2022/03/26 06:13:22;;;;;;;52.50;25.17;;;;;;;2.42;100.00;103248.91;2599966;54;21452;31
2022/03/26 06:18:48;;;;;;;59.13;25.60;;;;;;;2.74;100.00;103260.81;2599922;54;20056;31
2022/03/26 06:26:39;;;;;;;48.95;24.85;;;;;;;2.84;100.00;103268.63;2599876;54;20034;31
2022/03/26 06:29:17;;;;;;;50.83;24.55;;;;;;;2.93;100.00;103265.78;2600102;47;20061;31
2022/03/26 06:31:56;;;;;;;53.25;25.05;;;;;;;3.03;100.00;103264.72;2601006;54;20041;31
2022/03/26 06:53:54;;;;;;;54.37;27.67;;;;;;;4.40;100.00;103284.97;2599871;54;20966;31
2022/03/26 07:56:25;;;;;;;86.80;41.17;;;;;;;8.57;100.00;103301.16;2599742;54;19954;31
2022/03/26 08:07:19;;;;;;;109.75;48.72;;;;;;;9.05;100.00;103312.56;2599796;54;20648;31
2022/03/26 08:12:38;;;;;;;96.00;46.08;;;;;;;9.45;100.00;103314.41;2599788;54;20918;31
2022/03/26 08:15:16;;;;;;;99.28;45.22;;;;;;;9.54;100.00;103315.81;2604364;39;21096;31
2022/03/26 08:17:58;;;;;;;90.78;43.58;;;;;;;9.75;100.00;103308.56;2597537;47;20034;31
2022/03/26 08:20:45;;;;;;;81.07;41.95;;;;;;;9.79;100.00;103317.34;2600078;47;20038;31
2022/03/26 08:26:29;;;;;;;95.28;46.50;;;;;;;9.89;100.00;103315.97;2600499;47;21243;31
2022/03/26 08:54:08;;;;;;;104.70;49.40;;;;;;;11.28;100.00;103330.78;2596565;54;20026;31
2022/03/26 09:05:38;;;;;;;103.32;49.08;;;;;;;11.78;100.00;103318.25;2603628;39;20928;31
2022/03/26 09:08:17;;;;;;;97.15;47.30;;;;;;;11.99;100.00;103313.53;2602729;39;20256;31
2022/03/26 09:13:43;;;;;;;96.60;46.10;;;;;;;12.25;100.00;103314.75;2603037;39;20305;31
2022/03/26 09:18:58;;;;;;;89.17;45.20;;;;;;;12.65;100.00;103324.22;2599581;54;21660;31
2022/03/26 09:24:23;;;;;;;88.55;44.88;;;;;;;12.79;100.00;103316.19;2599937;54;20395;31
2022/03/26 09:32:13;;;;;;;86.63;46.42;;;;;;;12.86;100.00;103328.38;2598966;54;20034;31
2022/03/26 09:37:31;;;;;;;91.05;45.78;;;;;;;13.15;100.00;103317.69;2598394;54;20900;31
2022/03/26 09:40:15;;;;;;;101.50;47.08;;;;;;;13.44;100.00;103323.16;2600031;47;21104;31
2022/03/26 09:42:58;;;;;;;94.32;47.38;;;;;;;13.48;100.00;103309.34;2596678;54;21467;31
2022/03/26 09:45:43;;;;;;;101.50;49.20;;;;;;;13.50;100.00;103309.28;2599313;54;20111;31
2022/03/26 09:48:22;;;;;;;96.00;47.33;;;;;;;13.61;100.00;103309.47;2602966;39;20886;31
2022/03/26 09:56:16;;;;;;;94.47;47.67;;;;;;;13.87;100.00;103308.78;2598500;54;20243;31
2022/03/26 09:58:53;;;;;;;94.15;47.38;;;;;;;14.04;100.00;103302.28;2600400;39;20713;31
2022/03/26 10:04:09;;;;;;;87.72;42.70;;;;;;;14.48;100.00;103314.78;2599143;54;20304;31
2022/03/26 10:12:11;;;;;;;66.00;34.95;;;;;;;14.50;100.00;103307.41;2598913;54;20904;31
2022/03/26 10:14:49;;;;;;;76.70;39.55;;;;;;;14.79;100.00;103296.47;2599158;54;20061;31
2022/03/26 10:22:40;;;;;;;74.80;35.65;;;;;;;14.76;97.01;103286.72;2598271;54;20093;31
2022/03/26 10:27:55;;;;;;;66.05;33.25;;;;;;;14.95;91.53;103289.03;2600997;54;20054;31
2022/03/26 10:33:23;;;;;;;62.13;31.33;;;;;;;15.05;87.18;103292.84;2598816;46;19946;31
2022/03/26 10:43:56;;;;;;;55.75;26.63;;;;;;;15.33;75.71;103290.06;2598481;54;20026;31
2022/03/26 10:46:42;;;;;;;48.00;24.30;;;;;;;15.34;72.69;103289.97;2596854;46;20468;31
2022/03/26 10:49:27;;;;;;;42.42;22.55;;;;;;;15.33;74.05;103282.78;2599499;54;20042;31
2022/03/26 10:52:06;;;;;;;53.70;24.15;;;;;;;15.58;74.39;103272.91;2597656;47;20395;31
2022/03/26 11:02:32;;;;;;;42.70;20.48;;;;;;;16.00;69.30;103278.94;2597912;54;20911;31
2022/03/26 11:07:43;;;;;;;46.00;23.05;;;;;;;16.13;70.93;103276.19;2598352;54;20042;31
2022/03/26 11:12:53;;;;;;;41.17;20.85;;;;;;;16.15;66.29;103273.34;2598470;54;20034;31
2022/03/26 11:18:20;;;;;;;44.38;22.55;;;;;;;16.33;65.99;103282.88;2598425;54;20042;31
2022/03/26 11:21:19;;;;;;;45.50;23.13;;;;;;;15.93;67.86;103272.25;2617729;36;21728;31
2022/03/26 11:24:06;;;;;;;42.92;22.23;;;;;;;16.17;68.81;103272.28;2599916;39;20173;31
2022/03/26 11:32:05;;;;;;;39.47;20.65;;;;;;;16.69;65.45;103269.31;2597713;54;20034;31
2022/03/26 11:34:44;;;;;;;38.58;20.40;;;;;;;16.86;60.50;103260.75;2620312;36;20287;31
2022/03/26 11:42:36;;;;;;;42.10;21.30;;;;;;;16.69;63.36;103262.03;2598040;54;20912;31
2022/03/26 11:50:46;;;;;;;38.75;18.50;;;;;;;16.60;63.36;103254.56;2596341;54;20439;31
2022/03/26 11:53:37;;;;;;;35.10;18.20;;;;;;;16.84;60.09;103262.69;2598663;47;20034;31
2022/03/26 12:01:27;;;;;;;35.17;16.93;;;;;;;16.50;62.62;103254.41;2597849;54;20053;31
2022/03/26 12:04:10;;;;;;;31.35;18.05;;;;;;;16.76;61.78;103254.28;2599302;54;20291;31
2022/03/26 12:12:14;;;;;;;31.83;17.60;;;;;;;17.10;64.99;103241.66;2598171;54;20437;31
2022/03/26 12:17:30;;;;;;;38.33;19.07;;;;;;;17.25;65.46;103239.56;2598556;54;21211;31
2022/03/26 12:20:21;;;;;;;28.35;17.08;;;;;;;17.44;66.27;103230.78;2598508;54;20970;31
2022/03/26 12:33:21;;;;;;;35.93;17.50;;;;;;;17.48;60.57;103221.41;2598409;39;20156;31
2022/03/26 12:35:57;;;;;;;30.70;16.77;;;;;;;17.39;61.77;103216.69;2598157;54;20255;31
2022/03/26 12:46:16;;;;;;;32.93;18.20;;;;;;;17.86;60.76;103211.09;2598232;54;20030;31
2022/03/26 12:48:55;;;;;;;37.80;18.55;;;;;;;17.73;62.09;103216.69;2598499;39;20180;31
2022/03/26 12:54:10;;;;;;;37.37;19.20;;;;;;;17.72;62.02;103204.03;2597070;39;20360;31
2022/03/26 12:56:47;;;;;;;33.88;18.88;;;;;;;17.74;63.19;103207.53;2598311;39;20710;31
2022/03/26 13:04:42;;;;;;;36.22;19.38;;;;;;;17.66;63.40;103201.84;2597774;39;20348;31
2022/03/26 13:09:59;;;;;;;44.00;21.83;;;;;;;17.72;62.22;103198.59;2598298;54;20030;31
2022/03/26 13:12:37;;;;;;;43.78;21.73;;;;;;;17.80;62.82;103200.69;2601672;39;21377;31
2022/03/26 13:20:30;;;;;;;43.90;22.30;;;;;;;17.63;59.38;103194.78;2598313;39;21195;31
2022/03/26 13:23:13;;;;;;;42.90;22.30;;;;;;;17.67;63.97;103190.81;2599995;47;20947;31
2022/03/26 13:36:28;;;;;;;50.35;25.95;;;;;;;17.76;61.37;103189.19;2600576;39;21174;31
2022/03/26 13:41:39;;;;;;;45.95;24.90;;;;;;;17.86;60.19;103176.53;2597966;54;20045;31
2022/03/26 13:47:02;;;;;;;49.92;26.58;;;;;;;17.92;62.06;103183.38;2599256;54;20345;31
2022/03/26 14:23:33;;;;;;;42.42;25.92;;;;;;;17.59;99.09;103155.16;2600637;54;21019;31
2022/03/26 14:34:33;;;;;;;40.90;25.55;;;;;;;17.43;100.00;103138.34;2600523;54;22001;31
2022/03/26 15:39:39;;;;;;;19.60;11.35;;;;;;;17.11;100.00;103101.03;2598930;54;20030;31
2022/03/26 15:45:10;;;;;;;17.98;11.05;;;;;;;17.28;100.00;103102.38;2598775;54;20075;31
2022/03/26 15:50:36;;;;;;;15.43;10.55;;;;;;;16.66;100.00;103114.56;2599949;54;20923;31
2022/03/26 15:58:20;;;;;;;11.90;9.00;;;;;;;16.68;100.00;103112.59;2599484;31;21185;31
2022/03/26 16:06:18;;;;;;;12.52;8.73;;;;;;;16.03;100.00;103123.91;2603130;39;20337;31
2022/03/26 16:14:02;;;;;;;13.68;8.80;;;;;;;15.76;100.00;103107.81;2606323;31;20335;31
2022/03/26 16:16:42;;;;;;;12.90;8.35;;;;;;;15.90;100.00;103123.06;2618513;36;21206;31
2022/03/26 16:24:33;;;;;;;10.45;8.15;;;;;;;15.57;100.00;103121.88;2598654;54;20439;31
2022/03/26 16:29:43;;;;;;;13.50;8.35;;;;;;;15.45;100.00;103120.09;2599309;54;20469;31
2022/03/26 16:35:01;;;;;;;13.68;9.02;;;;;;;15.20;100.00;103121.88;2599346;54;20062;31
2022/03/26 16:37:39;;;;;;;14.65;8.30;;;;;;;15.06;100.00;103115.59;2600578;47;20038;31
2022/03/26 16:50:45;;;;;;;11.25;7.78;;;;;;;14.89;100.00;103118.63;2599005;54;20030;31
2022/03/26 16:53:21;;;;;;;14.77;9.27;;;;;;;14.78;100.00;103121.22;2600397;47;21023;31
2022/03/26 16:55:57;;;;;;;13.55;8.57;;;;;;;14.77;100.00;103119.53;2598086;46;20034;31
2022/03/26 17:03:46;;;;;;;15.10;9.03;;;;;;;14.51;100.00;103123.03;2599894;54;20899;31
2022/03/26 17:08:59;;;;;;;18.50;11.70;;;;;;;14.41;100.00;103140.03;2600106;54;20042;31
2022/03/26 17:11:37;;;;;;;14.07;8.57;;;;;;;14.27;100.00;103122.88;2600229;46;21741;31
2022/03/26 17:14:13;;;;;;;14.05;9.15;;;;;;;14.20;100.00;103126.97;2600452;54;20413;31
2022/03/26 17:16:49;;;;;;;12.63;8.38;;;;;;;14.20;100.00;103137.81;2600472;47;20387;31
2022/03/26 17:19:28;;;;;;;15.15;8.55;;;;;;;14.09;100.00;103140.38;2600673;47;21273;31
2022/03/26 17:27:16;;;;;;;17.70;8.75;;;;;;;14.04;100.00;103131.69;2599779;54;20089;31
2022/03/26 17:29:55;;;;;;;17.58;8.98;;;;;;;13.90;100.00;103135.31;2600274;46;20401;31
2022/03/26 17:37:43;;;;;;;;;;;;;;;13.41;100.00;103139.41;2604017;39;21086;31
2022/03/26 17:43:13;;;;;;;12.50;7.95;;;;;;;13.30;100.00;103145.47;2600089;54;21153;31
2022/03/26 17:45:55;;;;;;;11.50;7.35;;;;;;;13.15;100.00;103147.31;2600575;47;20058;31
2022/03/26 17:51:22;;;;;;;13.50;7.87;;;;;;;13.05;100.00;103146.16;2601451;46;20318;31
2022/03/26 17:59:11;;;;;;;13.95;8.00;;;;;;;12.97;100.00;103155.63;2599481;54;20030;31
2022/03/26 18:04:23;;;;;;;12.80;7.35;;;;;;;12.76;100.00;103148.84;2599622;54;20036;31
2022/03/26 18:09:37;;;;;;;11.95;7.85;;;;;;;12.68;100.00;103161.97;2599432;54;20062;31
2022/03/26 18:12:15;;;;;;;13.00;7.00;;;;;;;12.65;100.00;103163.00;2600025;46;21695;31
2022/03/26 18:17:31;;;;;;;10.57;6.05;;;;;;;12.51;100.00;103171.94;2599855;54;21010;31
2022/03/26 18:20:10;;;;;;;15.60;6.73;;;;;;;12.46;100.00;103173.19;2597425;54;21328;31
2022/03/26 18:25:20;;;;;;;8.43;5.75;;;;;;;12.34;100.00;103175.66;2599862;54;20038;31
2022/03/26 18:33:08;;;;;;;9.68;5.95;;;;;;;12.14;100.00;103190.31;2599274;54;20415;31
2022/03/26 18:35:45;;;;;;;8.25;5.65;;;;;;;11.96;100.00;103181.44;2603510;39;20293;31
2022/03/26 18:38:21;;;;;;;11.65;6.20;;;;;;;11.79;100.00;103192.31;2600369;47;20668;31
2022/03/26 18:46:12;;;;;;;9.40;6.30;;;;;;;11.71;100.00;103195.44;2599471;54;20080;31
2022/03/26 18:48:51;;;;;;;10.10;6.35;;;;;;;11.60;100.00;103197.84;2600093;54;20355;31
2022/03/26 18:56:39;;;;;;;;;;;;;;;11.44;100.00;103200.53;2600834;39;20124;31
2022/03/26 19:02:02;;;;;;;8.93;5.50;;;;;;;11.26;100.00;103205.97;2599072;54;20616;31
2022/03/26 19:07:15;;;;;;;9.30;5.33;;;;;;;11.34;100.00;103205.56;2598704;54;20471;31
2022/03/26 19:12:25;;;;;;;8.32;4.70;;;;;;;11.14;100.00;103214.72;2598904;54;19981;31
2022/03/26 20:20:09;;;;;;;7.75;4.60;;;;;;;9.84;100.00;103263.38;2599718;47;20092;31
2022/03/26 20:34:21;;;;;;;7.90;3.90;;;;;;;9.70;100.00;103283.72;2600562;47;20458;31
2022/03/26 20:57:08;;;;;;;4.75;3.20;;;;;;;9.78;100.00;103284.22;2600336;54;21485;31
2022/03/26 21:02:56;;;;;;;4.18;3.25;;;;;;;9.80;100.00;103285.03;2615792;36;20999;31
2022/03/26 21:05:42;;;;;;;4.35;3.17;;;;;;;9.76;100.00;103286.13;2599476;47;20355;31
2022/03/26 21:11:09;;;;;;;3.60;3.03;;;;;;;9.82;100.00;103285.81;2604095;39;20046;31
2022/03/26 21:24:21;;;;;;;5.03;3.80;;;;;;;9.93;100.00;103290.69;2600511;54;20909;31
2022/03/26 22:27:39;;;;;;;20.88;9.25;;;;;;;9.51;100.00;103309.66;2604675;39;21182;31
2022/03/26 22:30:18;;;;;;;14.30;10.85;;;;;;;9.44;100.00;103307.25;2599524;39;21010;31
2022/03/26 23:36:44;;;;;;;17.30;13.10;;;;;;;8.99;100.00;103307.47;2594173;54;20370;31
2022/03/26 23:47:02;;;;;;;20.33;14.15;;;;;;;8.87;100.00;103298.13;2599277;54;20030;31
2022/03/26 23:49:43;;;;;;;19.70;13.73;;;;;;;8.67;100.00;103297.16;2600144;47;21443;31
2022/03/26 23:58:00;;;;;;;19.65;13.27;;;;;;;8.53;100.00;103303.06;2601886;39;20862;31
